sensor_id;sensor_type;location;lat;lon;timestamp;P1;durP1;ratioP1;P2;durP2;ratioP2
69954;SDS011;57279;55.912;37.490;2022-12-15T00:00:07;9.15;;;2.97;;
69954;SDS011;57279;55.912;37.490;2022-12-15T00:02:51;11.02;;;3.40;;
69954;SDS011;57279;55.912;37.490;2022-12-15T00:05:36;7.72;;;2.75;;
69954;SDS011;57279;55.912;37.490;2022-12-15T00:08:20;10.50;;;3.63;;
69954;SDS011;57279;55.912;37.490;2022-12-15T00:11:05;12.15;;;3.67;;
69954;SDS011;57279;55.912;37.490;2022-12-15T00:13:48;13.18;;;3.95;;
69954;SDS011;57279;55.912;37.490;2022-12-15T00:16:33;10.98;;;4.10;;
69954;SDS011;57279;55.912;37.490;2022-12-15T00:19:17;11.25;;;4.15;;
69954;SDS011;57279;55.912;37.490;2022-12-15T00:22:02;9.50;;;2.92;;
69954;SDS011;57279;55.912;37.490;2022-12-15T00:24:47;10.30;;;4.05;;
69954;SDS011;57279;55.912;37.490;2022-12-15T00:27:31;11.93;;;4.00;;
69954;SDS011;57279;55.912;37.490;2022-12-15T00:30:15;12.32;;;4.47;;
69954;SDS011;57279;55.912;37.490;2022-12-15T00:32:59;10.38;;;3.40;;
69954;SDS011;57279;55.912;37.490;2022-12-15T00:35:43;11.45;;;4.28;;
69954;SDS011;57279;55.912;37.490;2022-12-15T00:38:27;12.48;;;4.22;;
69954;SDS011;57279;55.912;37.490;2022-12-15T00:41:12;8.48;;;3.42;;
69954;SDS011;57279;55.912;37.490;2022-12-15T00:43:40;12.82;;;4.38;;
69954;SDS011;57279;55.912;37.490;2022-12-15T00:46:06;12.23;;;4.35;;
69954;SDS011;57279;55.912;37.490;2022-12-15T00:48:50;9.98;;;3.53;;
69954;SDS011;57279;55.912;37.490;2022-12-15T00:51:16;9.18;;;3.10;;
69954;SDS011;57279;55.912;37.490;2022-12-15T00:56:28;10.48;;;3.22;;
69954;SDS011;57279;55.912;37.490;2022-12-15T00:59:13;11.90;;;4.50;;
69954;SDS011;57279;55.912;37.490;2022-12-15T01:01:58;11.88;;;4.65;;
69954;SDS011;57279;55.912;37.490;2022-12-15T01:07:28;11.70;;;4.15;;
69954;SDS011;57279;55.912;37.490;2022-12-15T01:10:12;11.30;;;4.47;;
69954;SDS011;57279;55.912;37.490;2022-12-15T01:12:56;13.73;;;5.55;;
69954;SDS011;57279;55.912;37.490;2022-12-15T01:15:41;14.35;;;5.00;;
69954;SDS011;57279;55.912;37.490;2022-12-15T01:18:25;9.82;;;3.47;;
69954;SDS011;57279;55.912;37.490;2022-12-15T01:21:10;11.88;;;4.55;;
69954;SDS011;57279;55.912;37.490;2022-12-15T01:26:02;15.93;;;4.07;;
69954;SDS011;57279;55.912;37.490;2022-12-15T01:28:29;14.02;;;5.20;;
69954;SDS011;57279;55.912;37.490;2022-12-15T01:30:55;11.45;;;4.88;;
69954;SDS011;57279;55.912;37.490;2022-12-15T01:33:20;12.98;;;4.88;;
69954;SDS011;57279;55.912;37.490;2022-12-15T01:35:59;14.95;;;4.80;;
69954;SDS011;57279;55.912;37.490;2022-12-15T01:38:26;12.95;;;4.55;;
69954;SDS011;57279;55.912;37.490;2022-12-15T01:41:03;13.77;;;4.20;;
69954;SDS011;57279;55.912;37.490;2022-12-15T01:43:32;13.75;;;5.68;;
69954;SDS011;57279;55.912;37.490;2022-12-15T01:46:00;11.40;;;4.30;;
69954;SDS011;57279;55.912;37.490;2022-12-15T01:48:50;11.13;;;4.75;;
69954;SDS011;57279;55.912;37.490;2022-12-15T01:53:52;12.23;;;4.45;;
69954;SDS011;57279;55.912;37.490;2022-12-15T01:56:22;12.85;;;4.68;;
69954;SDS011;57279;55.912;37.490;2022-12-15T01:58:50;12.27;;;4.60;;
69954;SDS011;57279;55.912;37.490;2022-12-15T02:01:20;14.18;;;5.00;;
69954;SDS011;57279;55.912;37.490;2022-12-15T02:03:46;13.52;;;5.55;;
69954;SDS011;57279;55.912;37.490;2022-12-15T02:06:12;11.38;;;4.05;;
69954;SDS011;57279;55.912;37.490;2022-12-15T02:08:39;14.40;;;5.13;;
69954;SDS011;57279;55.912;37.490;2022-12-15T02:14:00;12.98;;;4.70;;
69954;SDS011;57279;55.912;37.490;2022-12-15T02:19:11;13.25;;;4.85;;
69954;SDS011;57279;55.912;37.490;2022-12-15T02:27:10;12.75;;;4.53;;
69954;SDS011;57279;55.912;37.490;2022-12-15T02:32:52;13.90;;;5.15;;
69954;SDS011;57279;55.912;37.490;2022-12-15T02:35:27;11.25;;;4.28;;
69954;SDS011;57279;55.912;37.490;2022-12-15T02:37:54;15.82;;;4.85;;
69954;SDS011;57279;55.912;37.490;2022-12-15T02:40:20;14.82;;;5.75;;
69954;SDS011;57279;55.912;37.490;2022-12-15T02:42:50;11.75;;;4.90;;
69954;SDS011;57279;55.912;37.490;2022-12-15T02:45:19;15.00;;;5.15;;
69954;SDS011;57279;55.912;37.490;2022-12-15T02:51:27;13.95;;;4.63;;
69954;SDS011;57279;55.912;37.490;2022-12-15T02:56:57;11.45;;;3.83;;
69954;SDS011;57279;55.912;37.490;2022-12-15T03:01:57;12.95;;;4.88;;
69954;SDS011;57279;55.912;37.490;2022-12-15T03:04:26;14.75;;;5.88;;
69954;SDS011;57279;55.912;37.490;2022-12-15T03:06:53;14.50;;;5.20;;
69954;SDS011;57279;55.912;37.490;2022-12-15T03:09:21;12.88;;;5.07;;
69954;SDS011;57279;55.912;37.490;2022-12-15T03:11:46;15.93;;;5.78;;
69954;SDS011;57279;55.912;37.490;2022-12-15T03:14:12;12.63;;;5.07;;
69954;SDS011;57279;55.912;37.490;2022-12-15T03:16:37;11.95;;;5.15;;
69954;SDS011;57279;55.912;37.490;2022-12-15T03:19:03;12.00;;;5.03;;
69954;SDS011;57279;55.912;37.490;2022-12-15T03:21:29;13.35;;;5.20;;
69954;SDS011;57279;55.912;37.490;2022-12-15T03:23:54;16.05;;;5.85;;
69954;SDS011;57279;55.912;37.490;2022-12-15T03:26:20;15.00;;;5.03;;
69954;SDS011;57279;55.912;37.490;2022-12-15T03:28:46;16.40;;;5.28;;
69954;SDS011;57279;55.912;37.490;2022-12-15T03:31:11;15.88;;;4.88;;
69954;SDS011;57279;55.912;37.490;2022-12-15T03:33:38;12.07;;;5.05;;
69954;SDS011;57279;55.912;37.490;2022-12-15T03:36:04;14.32;;;5.15;;
69954;SDS011;57279;55.912;37.490;2022-12-15T03:38:30;14.50;;;5.05;;
69954;SDS011;57279;55.912;37.490;2022-12-15T03:40:55;12.60;;;5.55;;
69954;SDS011;57279;55.912;37.490;2022-12-15T03:43:21;16.63;;;5.85;;
69954;SDS011;57279;55.912;37.490;2022-12-15T03:45:46;12.35;;;5.57;;
69954;SDS011;57279;55.912;37.490;2022-12-15T03:48:12;13.82;;;5.28;;
69954;SDS011;57279;55.912;37.490;2022-12-15T03:50:38;12.45;;;4.63;;
69954;SDS011;57279;55.912;37.490;2022-12-15T03:53:03;12.40;;;5.03;;
69954;SDS011;57279;55.912;37.490;2022-12-15T03:55:29;15.45;;;6.03;;
69954;SDS011;57279;55.912;37.490;2022-12-15T03:57:55;14.07;;;5.78;;
69954;SDS011;57279;55.912;37.490;2022-12-15T04:00:22;14.60;;;5.65;;
69954;SDS011;57279;55.912;37.490;2022-12-15T04:02:49;14.05;;;4.80;;
69954;SDS011;57279;55.912;37.490;2022-12-15T04:07:52;15.43;;;6.07;;
69954;SDS011;57279;55.912;37.490;2022-12-15T04:10:19;14.93;;;5.70;;
69954;SDS011;57279;55.912;37.490;2022-12-15T04:12:44;13.32;;;5.20;;
69954;SDS011;57279;55.912;37.490;2022-12-15T04:15:10;15.30;;;5.95;;
69954;SDS011;57279;55.912;37.490;2022-12-15T04:17:36;14.27;;;5.20;;
69954;SDS011;57279;55.912;37.490;2022-12-15T04:20:02;14.88;;;5.35;;
69954;SDS011;57279;55.912;37.490;2022-12-15T04:25:03;14.38;;;7.53;;
69954;SDS011;57279;55.912;37.490;2022-12-15T04:27:48;17.40;;;6.28;;
69954;SDS011;57279;55.912;37.490;2022-12-15T04:30:32;17.33;;;6.38;;
69954;SDS011;57279;55.912;37.490;2022-12-15T04:33:17;17.50;;;7.22;;
69954;SDS011;57279;55.912;37.490;2022-12-15T04:36:02;14.38;;;5.10;;
69954;SDS011;57279;55.912;37.490;2022-12-15T04:38:47;14.32;;;5.68;;
69954;SDS011;57279;55.912;37.490;2022-12-15T04:41:31;16.42;;;5.70;;
69954;SDS011;57279;55.912;37.490;2022-12-15T04:44:16;15.02;;;5.88;;
69954;SDS011;57279;55.912;37.490;2022-12-15T04:47:00;14.63;;;5.45;;
69954;SDS011;57279;55.912;37.490;2022-12-15T04:49:45;15.88;;;5.32;;
69954;SDS011;57279;55.912;37.490;2022-12-15T04:52:28;14.45;;;5.53;;
69954;SDS011;57279;55.912;37.490;2022-12-15T04:55:13;13.60;;;5.15;;
69954;SDS011;57279;55.912;37.490;2022-12-15T04:57:57;17.30;;;6.05;;
69954;SDS011;57279;55.912;37.490;2022-12-15T05:00:46;15.55;;;5.15;;
69954;SDS011;57279;55.912;37.490;2022-12-15T05:03:30;13.57;;;5.78;;
69954;SDS011;57279;55.912;37.490;2022-12-15T05:06:15;14.18;;;5.60;;
69954;SDS011;57279;55.912;37.490;2022-12-15T05:08:59;13.32;;;4.82;;
69954;SDS011;57279;55.912;37.490;2022-12-15T05:11:43;14.95;;;5.85;;
69954;SDS011;57279;55.912;37.490;2022-12-15T05:14:27;19.55;;;6.25;;
69954;SDS011;57279;55.912;37.490;2022-12-15T05:17:11;15.43;;;5.55;;
69954;SDS011;57279;55.912;37.490;2022-12-15T05:19:56;14.38;;;5.90;;
69954;SDS011;57279;55.912;37.490;2022-12-15T05:22:40;14.73;;;5.60;;
69954;SDS011;57279;55.912;37.490;2022-12-15T05:25:24;14.52;;;5.50;;
69954;SDS011;57279;55.912;37.490;2022-12-15T05:28:08;16.85;;;5.03;;
69954;SDS011;57279;55.912;37.490;2022-12-15T05:30:52;13.82;;;5.38;;
69954;SDS011;57279;55.912;37.490;2022-12-15T05:33:36;14.68;;;5.28;;
69954;SDS011;57279;55.912;37.490;2022-12-15T05:36:02;13.23;;;4.93;;
69954;SDS011;57279;55.912;37.490;2022-12-15T05:38:28;13.35;;;4.95;;
69954;SDS011;57279;55.912;37.490;2022-12-15T05:40:56;12.77;;;5.15;;
69954;SDS011;57279;55.912;37.490;2022-12-15T05:43:22;14.07;;;5.95;;
69954;SDS011;57279;55.912;37.490;2022-12-15T05:45:48;13.18;;;4.75;;
69954;SDS011;57279;55.912;37.490;2022-12-15T05:48:13;12.60;;;5.20;;
69954;SDS011;57279;55.912;37.490;2022-12-15T05:50:39;12.38;;;4.80;;
69954;SDS011;57279;55.912;37.490;2022-12-15T05:53:05;11.25;;;4.45;;
69954;SDS011;57279;55.912;37.490;2022-12-15T05:55:30;11.05;;;4.20;;
69954;SDS011;57279;55.912;37.490;2022-12-15T05:57:56;9.98;;;3.42;;
69954;SDS011;57279;55.912;37.490;2022-12-15T06:00:22;11.32;;;4.75;;
69954;SDS011;57279;55.912;37.490;2022-12-15T06:02:47;11.45;;;4.43;;
69954;SDS011;57279;55.912;37.490;2022-12-15T06:05:13;12.48;;;4.63;;
69954;SDS011;57279;55.912;37.490;2022-12-15T06:07:39;12.32;;;4.75;;
69954;SDS011;57279;55.912;37.490;2022-12-15T06:10:05;12.90;;;4.45;;
69954;SDS011;57279;55.912;37.490;2022-12-15T06:12:30;14.00;;;4.78;;
69954;SDS011;57279;55.912;37.490;2022-12-15T06:14:56;13.60;;;4.65;;
69954;SDS011;57279;55.912;37.490;2022-12-15T06:17:22;11.57;;;4.85;;
69954;SDS011;57279;55.912;37.490;2022-12-15T06:19:47;13.20;;;4.85;;
69954;SDS011;57279;55.912;37.490;2022-12-15T06:22:13;15.20;;;5.05;;
69954;SDS011;57279;55.912;37.490;2022-12-15T06:24:38;12.32;;;5.07;;
69954;SDS011;57279;55.912;37.490;2022-12-15T06:27:04;14.10;;;5.18;;
69954;SDS011;57279;55.912;37.490;2022-12-15T06:29:29;12.60;;;4.75;;
69954;SDS011;57279;55.912;37.490;2022-12-15T06:31:55;10.77;;;4.38;;
69954;SDS011;57279;55.912;37.490;2022-12-15T06:34:21;11.43;;;4.65;;
69954;SDS011;57279;55.912;37.490;2022-12-15T06:36:46;11.60;;;4.68;;
69954;SDS011;57279;55.912;37.490;2022-12-15T06:39:13;13.98;;;4.63;;
69954;SDS011;57279;55.912;37.490;2022-12-15T06:41:40;13.70;;;5.63;;
69954;SDS011;57279;55.912;37.490;2022-12-15T06:44:06;16.08;;;5.72;;
69954;SDS011;57279;55.912;37.490;2022-12-15T06:46:32;14.73;;;5.97;;
69954;SDS011;57279;55.912;37.490;2022-12-15T06:49:01;13.27;;;5.20;;
69954;SDS011;57279;55.912;37.490;2022-12-15T06:51:27;12.30;;;5.70;;
69954;SDS011;57279;55.912;37.490;2022-12-15T06:53:53;16.50;;;5.80;;
69954;SDS011;57279;55.912;37.490;2022-12-15T06:58:52;13.70;;;5.65;;
69954;SDS011;57279;55.912;37.490;2022-12-15T07:01:19;12.48;;;4.93;;
69954;SDS011;57279;55.912;37.490;2022-12-15T07:03:47;14.00;;;4.88;;
69954;SDS011;57279;55.912;37.490;2022-12-15T07:06:13;16.70;;;6.63;;
69954;SDS011;57279;55.912;37.490;2022-12-15T07:08:41;17.02;;;6.35;;
69954;SDS011;57279;55.912;37.490;2022-12-15T07:11:08;17.30;;;6.60;;
69954;SDS011;57279;55.912;37.490;2022-12-15T07:13:36;15.30;;;5.70;;
69954;SDS011;57279;55.912;37.490;2022-12-15T07:16:03;14.00;;;5.90;;
69954;SDS011;57279;55.912;37.490;2022-12-15T07:18:30;15.43;;;5.97;;
69954;SDS011;57279;55.912;37.490;2022-12-15T07:21:01;15.07;;;6.97;;
69954;SDS011;57279;55.912;37.490;2022-12-15T07:23:28;16.30;;;6.43;;
69954;SDS011;57279;55.912;37.490;2022-12-15T07:25:54;15.85;;;6.47;;
69954;SDS011;57279;55.912;37.490;2022-12-15T07:28:20;15.05;;;5.75;;
69954;SDS011;57279;55.912;37.490;2022-12-15T07:30:45;17.80;;;6.63;;
69954;SDS011;57279;55.912;37.490;2022-12-15T07:33:11;17.10;;;7.25;;
69954;SDS011;57279;55.912;37.490;2022-12-15T07:35:37;16.38;;;7.35;;
69954;SDS011;57279;55.912;37.490;2022-12-15T07:38:04;20.55;;;7.10;;
69954;SDS011;57279;55.912;37.490;2022-12-15T07:40:31;16.38;;;6.28;;
69954;SDS011;57279;55.912;37.490;2022-12-15T07:42:57;15.25;;;6.60;;
69954;SDS011;57279;55.912;37.490;2022-12-15T07:45:22;15.48;;;6.57;;
69954;SDS011;57279;55.912;37.490;2022-12-15T07:47:48;16.55;;;6.85;;
69954;SDS011;57279;55.912;37.490;2022-12-15T07:50:16;17.08;;;6.38;;
69954;SDS011;57279;55.912;37.490;2022-12-15T07:52:43;16.50;;;6.88;;
69954;SDS011;57279;55.912;37.490;2022-12-15T07:57:35;17.00;;;7.57;;
69954;SDS011;57279;55.912;37.490;2022-12-15T08:00:00;17.10;;;6.35;;
69954;SDS011;57279;55.912;37.490;2022-12-15T08:02:26;19.25;;;8.27;;
69954;SDS011;57279;55.912;37.490;2022-12-15T08:04:52;17.85;;;7.15;;
69954;SDS011;57279;55.912;37.490;2022-12-15T08:07:17;17.77;;;7.43;;
69954;SDS011;57279;55.912;37.490;2022-12-15T08:09:43;16.23;;;6.50;;
69954;SDS011;57279;55.912;37.490;2022-12-15T08:12:11;19.67;;;7.75;;
69954;SDS011;57279;55.912;37.490;2022-12-15T08:14:37;18.80;;;8.02;;
69954;SDS011;57279;55.912;37.490;2022-12-15T08:17:03;17.40;;;7.50;;
69954;SDS011;57279;55.912;37.490;2022-12-15T08:19:28;16.23;;;6.90;;
69954;SDS011;57279;55.912;37.490;2022-12-15T08:21:55;19.58;;;8.23;;
69954;SDS011;57279;55.912;37.490;2022-12-15T08:24:20;21.67;;;8.02;;
69954;SDS011;57279;55.912;37.490;2022-12-15T08:26:46;21.48;;;8.13;;
69954;SDS011;57279;55.912;37.490;2022-12-15T08:29:13;16.85;;;7.35;;
69954;SDS011;57279;55.912;37.490;2022-12-15T08:31:38;22.77;;;9.23;;
69954;SDS011;57279;55.912;37.490;2022-12-15T08:34:05;20.77;;;9.57;;
69954;SDS011;57279;55.912;37.490;2022-12-15T08:36:31;22.02;;;9.32;;
69954;SDS011;57279;55.912;37.490;2022-12-15T08:38:57;21.70;;;7.43;;
69954;SDS011;57279;55.912;37.490;2022-12-15T08:41:25;21.77;;;8.10;;
69954;SDS011;57279;55.912;37.490;2022-12-15T08:43:53;19.38;;;7.75;;
69954;SDS011;57279;55.912;37.490;2022-12-15T08:46:21;19.80;;;7.78;;
69954;SDS011;57279;55.912;37.490;2022-12-15T08:48:48;17.63;;;7.10;;
69954;SDS011;57279;55.912;37.490;2022-12-15T08:53:40;18.98;;;7.85;;
69954;SDS011;57279;55.912;37.490;2022-12-15T08:56:11;17.42;;;6.95;;
69954;SDS011;57279;55.912;37.490;2022-12-15T08:58:38;19.63;;;7.63;;
69954;SDS011;57279;55.912;37.490;2022-12-15T09:01:05;20.33;;;7.72;;
69954;SDS011;57279;55.912;37.490;2022-12-15T09:03:33;15.63;;;6.55;;
69954;SDS011;57279;55.912;37.490;2022-12-15T09:06:03;17.80;;;7.30;;
69954;SDS011;57279;55.912;37.490;2022-12-15T09:08:30;18.05;;;7.35;;
69954;SDS011;57279;55.912;37.490;2022-12-15T09:10:56;17.70;;;6.70;;
69954;SDS011;57279;55.912;37.490;2022-12-15T09:13:23;18.35;;;6.82;;
69954;SDS011;57279;55.912;37.490;2022-12-15T09:16:02;17.02;;;6.35;;
69954;SDS011;57279;55.912;37.490;2022-12-15T09:18:29;16.83;;;7.07;;
69954;SDS011;57279;55.912;37.490;2022-12-15T09:23:25;16.88;;;6.13;;
69954;SDS011;57279;55.912;37.490;2022-12-15T09:25:57;15.50;;;6.18;;
69954;SDS011;57279;55.912;37.490;2022-12-15T09:28:27;15.02;;;6.50;;
69954;SDS011;57279;55.912;37.490;2022-12-15T09:30:54;16.13;;;6.10;;
69954;SDS011;57279;55.912;37.490;2022-12-15T09:33:26;14.75;;;6.30;;
69954;SDS011;57279;55.912;37.490;2022-12-15T09:35:51;17.20;;;6.90;;
69954;SDS011;57279;55.912;37.490;2022-12-15T09:38:18;14.50;;;5.93;;
69954;SDS011;57279;55.912;37.490;2022-12-15T09:40:44;20.15;;;6.32;;
69954;SDS011;57279;55.912;37.490;2022-12-15T09:43:10;14.93;;;5.60;;
69954;SDS011;57279;55.912;37.490;2022-12-15T09:45:42;15.00;;;5.40;;
69954;SDS011;57279;55.912;37.490;2022-12-15T09:48:13;14.38;;;6.10;;
69954;SDS011;57279;55.912;37.490;2022-12-15T09:50:44;14.10;;;4.95;;
69954;SDS011;57279;55.912;37.490;2022-12-15T09:53:15;14.95;;;4.63;;
69954;SDS011;57279;55.912;37.490;2022-12-15T09:55:44;16.40;;;5.60;;
69954;SDS011;57279;55.912;37.490;2022-12-15T09:58:16;15.18;;;6.30;;
69954;SDS011;57279;55.912;37.490;2022-12-15T10:09:46;16.83;;;6.10;;
69954;SDS011;57279;55.912;37.490;2022-12-15T10:12:23;13.98;;;6.03;;
69954;SDS011;57279;55.912;37.490;2022-12-15T10:17:40;12.88;;;4.28;;
69954;SDS011;57279;55.912;37.490;2022-12-15T10:22:46;15.05;;;6.50;;
69954;SDS011;57279;55.912;37.490;2022-12-15T10:30:38;14.32;;;5.72;;
69954;SDS011;57279;55.912;37.490;2022-12-15T10:33:35;15.27;;;5.78;;
69954;SDS011;57279;55.912;37.490;2022-12-15T10:36:10;16.88;;;6.40;;
69954;SDS011;57279;55.912;37.490;2022-12-15T10:38:44;16.40;;;6.90;;
69954;SDS011;57279;55.912;37.490;2022-12-15T10:41:15;15.70;;;6.43;;
69954;SDS011;57279;55.912;37.490;2022-12-15T10:43:44;20.38;;;6.80;;
69954;SDS011;57279;55.912;37.490;2022-12-15T10:48:44;17.73;;;5.93;;
69954;SDS011;57279;55.912;37.490;2022-12-15T10:51:22;15.98;;;5.93;;
69954;SDS011;57279;55.912;37.490;2022-12-15T10:54:21;18.30;;;6.60;;
69954;SDS011;57279;55.912;37.490;2022-12-15T10:56:52;20.55;;;7.10;;
69954;SDS011;57279;55.912;37.490;2022-12-15T11:01:55;15.85;;;6.68;;
69954;SDS011;57279;55.912;37.490;2022-12-15T11:06:57;16.42;;;6.68;;
69954;SDS011;57279;55.912;37.490;2022-12-15T11:09:34;14.07;;;5.80;;
69954;SDS011;57279;55.912;37.490;2022-12-15T11:12:02;15.35;;;5.78;;
69954;SDS011;57279;55.912;37.490;2022-12-15T11:20:38;14.80;;;5.25;;
69954;SDS011;57279;55.912;37.490;2022-12-15T11:23:15;19.30;;;6.85;;
69954;SDS011;57279;55.912;37.490;2022-12-15T11:25:59;18.85;;;6.75;;
69954;SDS011;57279;55.912;37.490;2022-12-15T11:28:46;16.85;;;7.72;;
69954;SDS011;57279;55.912;37.490;2022-12-15T11:31:24;18.13;;;6.70;;
69954;SDS011;57279;55.912;37.490;2022-12-15T11:33:56;19.33;;;6.53;;
69954;SDS011;57279;55.912;37.490;2022-12-15T11:36:32;20.55;;;7.00;;
69954;SDS011;57279;55.912;37.490;2022-12-15T11:44:27;21.42;;;6.32;;
69954;SDS011;57279;55.912;37.490;2022-12-15T11:50:13;18.25;;;6.93;;
69954;SDS011;57279;55.912;37.490;2022-12-15T11:55:17;21.45;;;7.25;;
69954;SDS011;57279;55.912;37.490;2022-12-15T11:57:51;19.58;;;6.25;;
69954;SDS011;57279;55.912;37.490;2022-12-15T12:00:19;22.42;;;6.72;;
69954;SDS011;57279;55.912;37.490;2022-12-15T12:17:01;22.35;;;7.60;;
69954;SDS011;57279;55.912;37.490;2022-12-15T12:22:35;23.02;;;7.18;;
69954;SDS011;57279;55.912;37.490;2022-12-15T12:25:16;26.08;;;6.68;;
69954;SDS011;57279;55.912;37.490;2022-12-15T12:27:55;17.48;;;6.55;;
69954;SDS011;57279;55.912;37.490;2022-12-15T12:30:26;17.00;;;6.25;;
69954;SDS011;57279;55.912;37.490;2022-12-15T12:33:02;17.90;;;6.28;;
69954;SDS011;57279;55.912;37.490;2022-12-15T12:35:47;20.20;;;7.00;;
69954;SDS011;57279;55.912;37.490;2022-12-15T12:38:19;15.32;;;6.68;;
69954;SDS011;57279;55.912;37.490;2022-12-15T12:41:13;17.45;;;6.93;;
69954;SDS011;57279;55.912;37.490;2022-12-15T12:44:07;18.55;;;7.07;;
69954;SDS011;57279;55.912;37.490;2022-12-15T12:46:41;17.27;;;6.35;;
69954;SDS011;57279;55.912;37.490;2022-12-15T12:49:18;23.00;;;7.05;;
69954;SDS011;57279;55.912;37.490;2022-12-15T12:51:52;16.98;;;5.85;;
69954;SDS011;57279;55.912;37.490;2022-12-15T12:56:59;15.70;;;6.10;;
69954;SDS011;57279;55.912;37.490;2022-12-15T13:01:55;15.68;;;6.30;;
69954;SDS011;57279;55.912;37.490;2022-12-15T13:06:56;19.33;;;6.65;;
69954;SDS011;57279;55.912;37.490;2022-12-15T13:09:25;17.83;;;7.25;;
69954;SDS011;57279;55.912;37.490;2022-12-15T13:12:02;17.63;;;5.90;;
69954;SDS011;57279;55.912;37.490;2022-12-15T13:20:19;18.95;;;7.32;;
69954;SDS011;57279;55.912;37.490;2022-12-15T13:22:47;16.23;;;5.82;;
69954;SDS011;57279;55.912;37.490;2022-12-15T13:28:00;22.27;;;7.35;;
69954;SDS011;57279;55.912;37.490;2022-12-15T13:44:56;16.23;;;6.22;;
69954;SDS011;57279;55.912;37.490;2022-12-15T13:47:19;19.85;;;7.25;;
69954;SDS011;57279;55.912;37.490;2022-12-15T13:49:54;24.88;;;8.43;;
69954;SDS011;57279;55.912;37.490;2022-12-15T13:52:32;19.98;;;7.05;;
69954;SDS011;57279;55.912;37.490;2022-12-15T13:55:02;19.10;;;8.23;;
69954;SDS011;57279;55.912;37.490;2022-12-15T13:57:44;26.27;;;8.82;;
69954;SDS011;57279;55.912;37.490;2022-12-15T14:00:18;20.40;;;6.70;;
69954;SDS011;57279;55.912;37.490;2022-12-15T14:02:44;21.48;;;7.20;;
69954;SDS011;57279;55.912;37.490;2022-12-15T14:07:47;19.48;;;7.00;;
69954;SDS011;57279;55.912;37.490;2022-12-15T14:13:00;16.63;;;6.85;;
69954;SDS011;57279;55.912;37.490;2022-12-15T14:15:32;17.02;;;6.88;;
69954;SDS011;57279;55.912;37.490;2022-12-15T14:17:59;17.52;;;6.95;;
69954;SDS011;57279;55.912;37.490;2022-12-15T14:20:30;19.15;;;6.93;;
69954;SDS011;57279;55.912;37.490;2022-12-15T14:23:16;18.90;;;6.35;;
69954;SDS011;57279;55.912;37.490;2022-12-15T14:25:53;18.73;;;7.65;;
69954;SDS011;57279;55.912;37.490;2022-12-15T14:28:26;14.60;;;5.30;;
69954;SDS011;57279;55.912;37.490;2022-12-15T14:30:58;18.38;;;6.93;;
69954;SDS011;57279;55.912;37.490;2022-12-15T14:33:26;19.52;;;7.22;;
69954;SDS011;57279;55.912;37.490;2022-12-15T14:35:53;23.25;;;7.72;;
69954;SDS011;57279;55.912;37.490;2022-12-15T14:38:23;19.20;;;6.72;;
69954;SDS011;57279;55.912;37.490;2022-12-15T14:40:55;20.63;;;7.05;;
69954;SDS011;57279;55.912;37.490;2022-12-15T14:43:25;18.73;;;8.23;;
69954;SDS011;57279;55.912;37.490;2022-12-15T14:45:56;17.63;;;6.35;;
69954;SDS011;57279;55.912;37.490;2022-12-15T14:48:33;20.08;;;7.57;;
69954;SDS011;57279;55.912;37.490;2022-12-15T14:51:02;17.60;;;6.85;;
69954;SDS011;57279;55.912;37.490;2022-12-15T14:53:32;19.13;;;6.57;;
69954;SDS011;57279;55.912;37.490;2022-12-15T14:58:45;23.42;;;10.57;;
69954;SDS011;57279;55.912;37.490;2022-12-15T15:03:57;19.08;;;7.85;;
69954;SDS011;57279;55.912;37.490;2022-12-15T15:06:36;17.42;;;7.15;;
69954;SDS011;57279;55.912;37.490;2022-12-15T15:11:39;19.65;;;7.30;;
69954;SDS011;57279;55.912;37.490;2022-12-15T15:14:12;18.10;;;6.55;;
69954;SDS011;57279;55.912;37.490;2022-12-15T15:16:41;18.88;;;7.55;;
69954;SDS011;57279;55.912;37.490;2022-12-15T15:19:10;17.67;;;6.93;;
69954;SDS011;57279;55.912;37.490;2022-12-15T15:21:45;19.63;;;7.28;;
69954;SDS011;57279;55.912;37.490;2022-12-15T15:26:37;17.92;;;5.57;;
69954;SDS011;57279;55.912;37.490;2022-12-15T15:29:28;18.48;;;6.05;;
69954;SDS011;57279;55.912;37.490;2022-12-15T15:32:19;14.77;;;5.35;;
69954;SDS011;57279;55.912;37.490;2022-12-15T15:34:46;19.55;;;6.72;;
69954;SDS011;57279;55.912;37.490;2022-12-15T15:37:17;21.67;;;7.15;;
69954;SDS011;57279;55.912;37.490;2022-12-15T15:39:46;19.27;;;7.03;;
69954;SDS011;57279;55.912;37.490;2022-12-15T15:42:13;19.73;;;7.78;;
69954;SDS011;57279;55.912;37.490;2022-12-15T15:44:39;19.70;;;7.93;;
69954;SDS011;57279;55.912;37.490;2022-12-15T15:47:05;21.40;;;6.63;;
69954;SDS011;57279;55.912;37.490;2022-12-15T15:49:40;22.15;;;7.85;;
69954;SDS011;57279;55.912;37.490;2022-12-15T15:52:07;18.92;;;7.40;;
69954;SDS011;57279;55.912;37.490;2022-12-15T15:54:35;20.98;;;7.57;;
69954;SDS011;57279;55.912;37.490;2022-12-15T15:57:00;28.15;;;9.40;;
69954;SDS011;57279;55.912;37.490;2022-12-15T15:59:26;35.42;;;14.57;;
69954;SDS011;57279;55.912;37.490;2022-12-15T16:01:53;45.05;;;21.02;;
69954;SDS011;57279;55.912;37.490;2022-12-15T16:04:20;25.30;;;9.73;;
69954;SDS011;57279;55.912;37.490;2022-12-15T16:06:47;24.27;;;10.10;;
69954;SDS011;57279;55.912;37.490;2022-12-15T16:09:13;23.63;;;8.85;;
69954;SDS011;57279;55.912;37.490;2022-12-15T16:11:40;25.15;;;10.05;;
69954;SDS011;57279;55.912;37.490;2022-12-15T16:14:09;19.60;;;8.15;;
69954;SDS011;57279;55.912;37.490;2022-12-15T16:16:37;31.90;;;14.90;;
69954;SDS011;57279;55.912;37.490;2022-12-15T16:19:03;22.70;;;10.27;;
69954;SDS011;57279;55.912;37.490;2022-12-15T16:21:28;24.25;;;10.30;;
69954;SDS011;57279;55.912;37.490;2022-12-15T16:23:54;21.30;;;8.32;;
69954;SDS011;57279;55.912;37.490;2022-12-15T16:26:29;23.08;;;7.85;;
69954;SDS011;57279;55.912;37.490;2022-12-15T16:28:56;20.75;;;7.05;;
69954;SDS011;57279;55.912;37.490;2022-12-15T16:31:29;20.80;;;7.32;;
69954;SDS011;57279;55.912;37.490;2022-12-15T16:34:01;18.85;;;7.28;;
69954;SDS011;57279;55.912;37.490;2022-12-15T16:36:32;19.40;;;7.30;;
69954;SDS011;57279;55.912;37.490;2022-12-15T16:38:59;20.52;;;6.88;;
69954;SDS011;57279;55.912;37.490;2022-12-15T16:41:25;19.25;;;7.20;;
69954;SDS011;57279;55.912;37.490;2022-12-15T16:43:52;18.85;;;6.70;;
69954;SDS011;57279;55.912;37.490;2022-12-15T16:46:18;21.83;;;8.10;;
69954;SDS011;57279;55.912;37.490;2022-12-15T16:48:44;17.63;;;7.03;;
69954;SDS011;57279;55.912;37.490;2022-12-15T16:51:16;17.75;;;7.60;;
69954;SDS011;57279;55.912;37.490;2022-12-15T16:53:51;16.10;;;6.43;;
69954;SDS011;57279;55.912;37.490;2022-12-15T16:56:17;19.45;;;6.03;;
69954;SDS011;57279;55.912;37.490;2022-12-15T16:58:43;19.95;;;6.38;;
69954;SDS011;57279;55.912;37.490;2022-12-15T17:01:09;20.95;;;7.38;;
69954;SDS011;57279;55.912;37.490;2022-12-15T17:03:36;18.27;;;6.75;;
69954;SDS011;57279;55.912;37.490;2022-12-15T17:06:03;18.65;;;7.30;;
69954;SDS011;57279;55.912;37.490;2022-12-15T17:08:41;18.48;;;7.70;;
69954;SDS011;57279;55.912;37.490;2022-12-15T17:11:12;19.52;;;8.30;;
69954;SDS011;57279;55.912;37.490;2022-12-15T17:13:42;20.73;;;7.97;;
69954;SDS011;57279;55.912;37.490;2022-12-15T17:16:12;17.85;;;5.57;;
69954;SDS011;57279;55.912;37.490;2022-12-15T17:18:38;16.13;;;5.63;;
69954;SDS011;57279;55.912;37.490;2022-12-15T17:21:26;19.58;;;6.32;;